Weather at Los Ingleses Airport

Public forecast

Using degrees Celsius for public forecast. Weather courtesy of forecast.io.

Closest aviation weather report (METAR) to Los Ingleses Airport

Closest report is Ignacio Agramonte International Airport, 37.8 nm (70.1 km) NNE.

2024/04/18 02:50 (retrieved 33 minutes ago)

MUCM 180250Z 03009KT 9000 FEW020 23/20 Q1017

Closest aviation forecast (TAF) to Los Ingleses Airport

Forecast is more than 6 hours old.

Closest forecast is Vilo Acuña International Airport, 200.3 nm (371.0 km) WNW.

2024/04/17 18:00 (retrieved 9 hours ago)

TAF MUCL 171700Z 1718/1806 09012KT 9000 FEW020 BECMG 1802/1803 03014KT